createdAt,value
2022-12-31T00:00:42.438Z,68.46
2022-12-31T00:03:30.071Z,68.45
2022-12-31T00:06:02.406Z,68.38
2022-12-31T00:08:34.365Z,68.41
2022-12-31T00:11:06.355Z,68.42
2022-12-31T00:13:38.836Z,68.48
2022-12-31T00:16:13.786Z,68.27
2022-12-31T00:18:48.144Z,68.19
2022-12-31T00:21:21.079Z,68.29
2022-12-31T00:23:53.146Z,68.17
2022-12-31T00:26:27.652Z,68.27
2022-12-31T00:29:00.590Z,68.16
2022-12-31T00:31:34.282Z,68.21
2022-12-31T00:34:07.178Z,68.24
2022-12-31T00:36:42.561Z,68.20
2022-12-31T00:39:14.388Z,68.22
2022-12-31T00:41:46.435Z,68.26
2022-12-31T00:44:18.255Z,68.24
2022-12-31T00:46:50.084Z,68.22
2022-12-31T00:49:21.982Z,68.29
2022-12-31T00:51:53.922Z,68.33
2022-12-31T00:54:25.787Z,68.66
2022-12-31T00:56:57.651Z,68.77
2022-12-31T00:59:29.658Z,68.78
2022-12-31T01:02:01.667Z,69.02
2022-12-31T01:04:33.634Z,69.06
2022-12-31T01:07:05.547Z,69.16
2022-12-31T01:09:37.400Z,69.29
2022-12-31T01:12:09.864Z,69.47
2022-12-31T01:14:41.718Z,69.46
2022-12-31T01:17:13.743Z,69.45
2022-12-31T01:19:45.947Z,69.60
2022-12-31T01:22:17.742Z,69.61
2022-12-31T01:24:49.588Z,69.84
2022-12-31T01:27:21.353Z,69.76
2022-12-31T01:29:53.199Z,69.99
2022-12-31T01:32:25.039Z,70.06
2022-12-31T01:34:56.849Z,69.98
2022-12-31T01:37:28.971Z,70.15
2022-12-31T01:40:00.779Z,70.21
2022-12-31T01:42:32.672Z,70.30
2022-12-31T01:45:04.777Z,70.56
2022-12-31T01:47:41.075Z,70.54
2022-12-31T01:50:21.972Z,70.66
2022-12-31T01:52:58.082Z,70.86
2022-12-31T01:55:33.858Z,70.89
2022-12-31T01:58:10.177Z,71.13
2022-12-31T02:00:42.470Z,71.07
2022-12-31T02:03:15.591Z,71.05
2022-12-31T02:05:52.865Z,71.43
2022-12-31T02:08:24.976Z,71.58
2022-12-31T02:10:56.776Z,71.55
2022-12-31T02:13:28.813Z,72.06
2022-12-31T02:16:09.754Z,71.95
2022-12-31T02:18:48.042Z,72.05
2022-12-31T02:21:46.146Z,72.20
2022-12-31T02:24:53.268Z,72.27
2022-12-31T02:27:41.341Z,72.18
2022-12-31T02:30:25.969Z,72.10
2022-12-31T02:33:14.304Z,72.24
2022-12-31T02:35:51.047Z,72.33
2022-12-31T02:38:26.518Z,72.57
2022-12-31T02:41:00.022Z,72.57
2022-12-31T02:43:31.962Z,72.35
2022-12-31T02:46:11.552Z,72.60
2022-12-31T02:48:50.519Z,72.39
2022-12-31T02:51:35.385Z,72.59
2022-12-31T02:54:18.896Z,72.53
2022-12-31T02:57:01.705Z,72.57
2022-12-31T02:59:56.343Z,72.36
2022-12-31T03:02:32.036Z,72.40
2022-12-31T03:05:05.301Z,72.58
2022-12-31T03:07:37.099Z,72.56
2022-12-31T03:10:15.461Z,72.34
2022-12-31T03:12:48.280Z,72.47
2022-12-31T03:15:24.352Z,72.53
2022-12-31T03:17:59.692Z,72.55
2022-12-31T03:20:52.886Z,72.43
2022-12-31T03:23:27.217Z,72.41
2022-12-31T03:26:01.133Z,72.58
2022-12-31T03:28:33.576Z,72.58
2022-12-31T03:31:06.051Z,72.46
2022-12-31T03:33:39.909Z,72.51
2022-12-31T03:36:14.794Z,72.47
2022-12-31T03:38:52.469Z,72.57
2022-12-31T03:41:24.591Z,72.45
2022-12-31T03:43:56.438Z,72.52
2022-12-31T03:46:28.283Z,72.45
2022-12-31T03:49:00.101Z,72.53
2022-12-31T03:51:32.025Z,72.53
2022-12-31T03:54:03.764Z,72.57
2022-12-31T03:56:35.620Z,72.56
2022-12-31T03:59:07.455Z,72.54
2022-12-31T04:01:39.330Z,72.60
2022-12-31T04:04:11.316Z,72.66
2022-12-31T04:06:43.191Z,72.73
2022-12-31T04:09:15.013Z,72.83
2022-12-31T04:11:46.824Z,72.81
2022-12-31T04:14:19.234Z,72.86
2022-12-31T04:16:51.102Z,72.89
2022-12-31T04:19:23.316Z,72.76
2022-12-31T04:21:55.149Z,72.81
2022-12-31T04:24:27.391Z,72.86
2022-12-31T04:27:07.092Z,72.86
2022-12-31T04:29:40.354Z,72.84
2022-12-31T04:32:12.305Z,72.86
2022-12-31T04:34:44.173Z,72.95
2022-12-31T04:37:16.058Z,72.92
2022-12-31T04:39:47.883Z,72.88
2022-12-31T04:42:19.741Z,72.95
2022-12-31T04:44:51.643Z,73.01
2022-12-31T04:47:24.167Z,72.99
2022-12-31T04:49:56.416Z,73.11
2022-12-31T04:52:28.245Z,73.14
2022-12-31T04:55:00.084Z,73.11
2022-12-31T04:57:32.105Z,73.15
2022-12-31T05:00:04.123Z,73.16
2022-12-31T05:02:36.101Z,73.22
2022-12-31T05:05:10.667Z,73.16
2022-12-31T05:07:42.578Z,73.20
2022-12-31T05:10:18.292Z,73.24
2022-12-31T05:12:55.915Z,73.23
2022-12-31T05:15:27.789Z,73.10
2022-12-31T05:17:59.679Z,73.15
2022-12-31T05:20:38.150Z,73.15
2022-12-31T05:23:10.154Z,73.25
2022-12-31T05:25:42.838Z,73.25
2022-12-31T05:28:15.205Z,73.14
2022-12-31T05:30:49.230Z,73.26
2022-12-31T05:33:23.060Z,73.33
2022-12-31T05:35:54.924Z,73.37
2022-12-31T05:38:26.836Z,73.32
2022-12-31T05:41:09.347Z,73.38
2022-12-31T05:43:41.181Z,73.47
2022-12-31T05:46:13.152Z,73.46
2022-12-31T05:48:44.959Z,73.55
2022-12-31T05:51:16.745Z,73.47
2022-12-31T05:53:48.514Z,73.72
2022-12-31T05:56:20.669Z,73.68
2022-12-31T05:58:52.660Z,73.93
2022-12-31T06:01:24.498Z,73.82
2022-12-31T06:03:56.566Z,73.78
2022-12-31T06:06:28.508Z,73.86
2022-12-31T06:09:00.383Z,73.78
2022-12-31T06:11:32.263Z,73.96
2022-12-31T06:14:04.073Z,73.93
2022-12-31T06:16:35.937Z,73.93
2022-12-31T06:19:08.156Z,73.95
2022-12-31T06:21:39.975Z,74.01
2022-12-31T06:24:12.167Z,74.07
2022-12-31T06:26:44.027Z,73.93
2022-12-31T06:29:15.970Z,73.90
2022-12-31T06:31:48.027Z,74.00
2022-12-31T06:34:19.963Z,74.03
2022-12-31T06:36:51.824Z,73.98
2022-12-31T06:39:23.659Z,73.94
2022-12-31T06:41:55.470Z,73.95
2022-12-31T06:44:27.436Z,73.89
2022-12-31T06:46:59.663Z,73.94
2022-12-31T06:49:31.502Z,73.99
2022-12-31T06:52:03.290Z,74.10
2022-12-31T06:54:35.841Z,74.08
2022-12-31T06:57:11.841Z,74.28
2022-12-31T06:59:47.888Z,74.17
2022-12-31T07:02:33.375Z,74.36
2022-12-31T07:05:32.199Z,74.50
2022-12-31T07:08:18.072Z,74.61
2022-12-31T07:11:02.375Z,74.63
2022-12-31T07:13:54.629Z,74.63
2022-12-31T07:16:38.198Z,74.70
2022-12-31T07:19:25.007Z,74.86
2022-12-31T07:21:59.766Z,74.91
2022-12-31T07:24:34.263Z,75.02
2022-12-31T07:27:20.072Z,75.54
2022-12-31T07:30:04.250Z,76.05
2022-12-31T07:32:53.814Z,76.72
2022-12-31T07:35:35.455Z,77.13
2022-12-31T07:38:18.072Z,77.88
2022-12-31T07:40:58.646Z,77.78
2022-12-31T07:43:37.565Z,77.42
2022-12-31T07:46:18.505Z,77.45
2022-12-31T07:48:54.239Z,77.46
2022-12-31T07:51:27.186Z,77.21
2022-12-31T07:53:58.990Z,77.68
2022-12-31T07:56:32.178Z,77.65
2022-12-31T07:59:18.446Z,77.36
2022-12-31T08:02:00.955Z,77.64
2022-12-31T08:04:43.662Z,78.12
2022-12-31T08:07:23.768Z,77.73
2022-12-31T08:10:03.042Z,77.76
2022-12-31T08:12:44.809Z,78.04
2022-12-31T08:15:24.092Z,78.42
2022-12-31T08:18:00.979Z,78.31
2022-12-31T08:20:35.156Z,77.80
2022-12-31T08:23:22.444Z,77.76
2022-12-31T08:26:07.829Z,77.55
2022-12-31T08:28:57.884Z,78.10
2022-12-31T08:31:38.055Z,77.47
2022-12-31T08:34:19.799Z,77.37
2022-12-31T08:36:58.371Z,77.33
2022-12-31T08:39:40.808Z,77.52
2022-12-31T08:42:28.784Z,77.43
2022-12-31T08:45:06.848Z,77.24
2022-12-31T08:47:47.097Z,77.29
2022-12-31T08:50:28.214Z,77.16
2022-12-31T08:53:03.081Z,77.08
2022-12-31T08:55:37.427Z,77.04
2022-12-31T08:58:23.566Z,76.85
2022-12-31T09:00:59.761Z,76.86
2022-12-31T09:03:47.491Z,76.80
2022-12-31T09:06:27.439Z,76.65
2022-12-31T09:09:10.816Z,76.69
2022-12-31T09:11:58.787Z,76.48
2022-12-31T09:14:44.726Z,76.47
2022-12-31T09:17:37.714Z,76.50
2022-12-31T09:20:26.227Z,76.29
2022-12-31T09:22:59.185Z,76.30
2022-12-31T09:25:33.688Z,76.22
2022-12-31T09:28:15.903Z,76.12
2022-12-31T09:30:58.514Z,76.15
2022-12-31T09:33:42.983Z,76.18
2022-12-31T09:36:21.039Z,75.87
2022-12-31T09:39:02.278Z,75.95
2022-12-31T09:42:17.706Z,75.74
2022-12-31T09:45:23.768Z,75.49
2022-12-31T09:48:49.672Z,75.02
2022-12-31T09:51:31.608Z,74.71
2022-12-31T09:54:37.814Z,74.49
2022-12-31T09:57:35.692Z,74.41
2022-12-31T10:00:14.283Z,74.29
2022-12-31T10:03:00.663Z,73.92
2022-12-31T10:05:52.421Z,73.35
2022-12-31T10:08:42.553Z,58.51
2022-12-31T10:11:19.861Z,72.93
2022-12-31T10:14:02.735Z,72.17
2022-12-31T10:16:50.447Z,72.18
2022-12-31T10:19:55.105Z,71.70
2022-12-31T10:22:56.419Z,71.35
2022-12-31T10:25:37.762Z,70.86
2022-12-31T10:28:24.940Z,70.60
2022-12-31T10:31:15.048Z,70.46
2022-12-31T10:33:56.369Z,70.46
2022-12-31T10:36:35.903Z,69.78
2022-12-31T10:39:24.219Z,69.48
2022-12-31T10:42:30.554Z,70.01
2022-12-31T10:45:54.645Z,69.26
2022-12-31T10:49:11.605Z,68.89
2022-12-31T10:52:07.959Z,68.90
2022-12-31T10:55:24.331Z,68.99
2022-12-31T10:58:13.720Z,68.51
2022-12-31T11:00:53.534Z,69.08
2022-12-31T11:04:01.374Z,68.80
2022-12-31T11:07:02.337Z,68.57
2022-12-31T11:10:02.960Z,69.00
2022-12-31T11:13:07.106Z,69.55
2022-12-31T11:16:04.281Z,68.59
2022-12-31T11:20:03.345Z,68.65
2022-12-31T11:22:49.237Z,68.14
2022-12-31T11:25:30.715Z,68.22
2022-12-31T11:28:59.939Z,68.28
2022-12-31T11:31:43.178Z,68.63
2022-12-31T11:34:40.283Z,68.13
2022-12-31T11:37:31.347Z,67.99
2022-12-31T11:40:15.519Z,67.83
2022-12-31T11:42:56.565Z,68.25
2022-12-31T11:45:37.553Z,68.35
2022-12-31T11:48:30.060Z,67.73
2022-12-31T11:51:17.369Z,67.66
2022-12-31T11:55:50.100Z,68.14
2022-12-31T11:58:28.644Z,68.09
2022-12-31T12:01:06.545Z,68.06
2022-12-31T12:03:42.591Z,67.75
2022-12-31T12:06:17.883Z,67.76
2022-12-31T12:08:50.045Z,67.62
2022-12-31T12:11:25.396Z,67.31
2022-12-31T12:13:57.810Z,67.39
2022-12-31T12:16:31.308Z,67.44
2022-12-31T12:19:08.355Z,67.68
2022-12-31T12:21:48.631Z,67.07
2022-12-31T12:24:23.111Z,67.09
2022-12-31T12:26:54.993Z,67.31
2022-12-31T12:29:32.756Z,67.19
2022-12-31T12:32:07.797Z,67.44
2022-12-31T12:34:49.168Z,67.61
2022-12-31T12:37:33.447Z,67.76
2022-12-31T12:40:17.218Z,67.81
2022-12-31T12:42:51.581Z,67.77
2022-12-31T12:45:26.697Z,67.69
2022-12-31T12:48:02.478Z,67.84
2022-12-31T12:50:40.583Z,67.76
2022-12-31T12:53:40.298Z,67.64
2022-12-31T12:56:22.820Z,67.47
2022-12-31T12:59:08.752Z,67.55
2022-12-31T13:01:47.126Z,67.36
2022-12-31T13:04:57.997Z,67.38
2022-12-31T13:07:44.718Z,67.58
2022-12-31T13:10:34.408Z,67.74
2022-12-31T13:13:25.405Z,67.49
2022-12-31T13:16:03.461Z,67.79
2022-12-31T13:18:50.606Z,67.56
2022-12-31T13:21:32.303Z,67.92
2022-12-31T13:24:13.693Z,67.95
2022-12-31T13:26:49.933Z,68.09
2022-12-31T13:29:25.807Z,68.03
2022-12-31T13:32:02.392Z,68.12
2022-12-31T13:34:38.969Z,68.22
2022-12-31T13:37:23.811Z,68.14
2022-12-31T13:40:02.805Z,67.98
2022-12-31T13:42:42.423Z,68.09
2022-12-31T13:45:21.968Z,68.16
2022-12-31T13:47:56.795Z,68.30
2022-12-31T13:50:37.673Z,68.26
2022-12-31T13:53:18.827Z,68.32
2022-12-31T13:55:58.713Z,68.18
2022-12-31T13:58:36.815Z,68.17
2022-12-31T14:01:15.092Z,68.33
2022-12-31T14:03:59.803Z,68.39
2022-12-31T14:06:36.281Z,68.41
2022-12-31T14:09:10.469Z,68.35
2022-12-31T14:11:56.405Z,68.59
2022-12-31T14:14:35.379Z,68.62
2022-12-31T14:17:17.673Z,68.56
2022-12-31T14:20:00.622Z,68.60
2022-12-31T14:22:41.001Z,68.82
2022-12-31T14:25:22.943Z,68.83
2022-12-31T14:27:56.796Z,68.75
2022-12-31T14:30:34.149Z,69.10
2022-12-31T14:33:18.472Z,69.13
2022-12-31T14:36:09.968Z,69.10
2022-12-31T14:38:56.779Z,69.15
2022-12-31T14:41:44.541Z,69.47
2022-12-31T14:44:33.127Z,69.47
2022-12-31T14:47:17.895Z,69.46
2022-12-31T14:49:58.108Z,69.40
2022-12-31T14:52:33.047Z,69.20
2022-12-31T14:55:22.953Z,69.10
2022-12-31T14:58:26.465Z,69.10
2022-12-31T15:00:57.463Z,68.99
2022-12-31T15:03:42.957Z,68.78
2022-12-31T15:06:46.495Z,68.65
2022-12-31T15:09:41.373Z,68.52
2022-12-31T15:12:42.638Z,68.31
2022-12-31T15:15:37.347Z,67.92
2022-12-31T15:18:27.373Z,68.09
2022-12-31T15:21:26.208Z,67.92
2022-12-31T15:23:58.709Z,68.00
2022-12-31T15:26:34.701Z,67.83
2022-12-31T15:29:09.224Z,68.20
2022-12-31T15:31:49.000Z,67.81
2022-12-31T15:34:29.632Z,67.94
2022-12-31T15:37:03.669Z,68.07
2022-12-31T15:39:44.624Z,68.01
2022-12-31T15:42:49.672Z,67.98
2022-12-31T15:45:25.741Z,67.76
2022-12-31T15:48:01.478Z,67.65
2022-12-31T15:50:40.653Z,67.71
2022-12-31T15:53:27.703Z,67.40
2022-12-31T15:56:01.785Z,67.60
2022-12-31T15:58:37.920Z,67.50
2022-12-31T16:01:16.161Z,67.45
2022-12-31T16:03:52.739Z,67.47
2022-12-31T16:06:26.944Z,67.24
2022-12-31T16:08:59.112Z,67.20
2022-12-31T16:11:31.461Z,67.39
2022-12-31T16:14:04.806Z,67.24
2022-12-31T16:16:36.626Z,67.27
2022-12-31T16:19:33.841Z,66.97
2022-12-31T16:22:14.581Z,66.92
2022-12-31T16:25:19.441Z,66.94
2022-12-31T16:27:38.763Z,66.92
2022-12-31T16:30:31.312Z,66.83
2022-12-31T16:33:05.277Z,66.82
2022-12-31T16:35:38.572Z,66.97
2022-12-31T16:38:17.342Z,66.82
2022-12-31T16:41:09.992Z,66.53
2022-12-31T16:43:43.415Z,66.61
2022-12-31T16:46:20.360Z,66.43
2022-12-31T16:48:56.898Z,66.58
2022-12-31T16:51:31.849Z,66.56
2022-12-31T16:54:04.511Z,66.70
2022-12-31T16:56:38.319Z,66.74
2022-12-31T16:59:23.910Z,66.77
2022-12-31T17:01:57.679Z,66.92
2022-12-31T17:04:29.849Z,66.71
2022-12-31T17:07:34.778Z,66.71
2022-12-31T17:10:17.982Z,66.94
2022-12-31T17:13:26.860Z,66.71
2022-12-31T17:15:47.333Z,67.03
2022-12-31T17:18:22.028Z,67.11
2022-12-31T17:20:56.283Z,66.98
2022-12-31T17:23:34.113Z,67.16
2022-12-31T17:26:11.276Z,67.37
2022-12-31T17:28:47.230Z,67.37
2022-12-31T17:31:39.447Z,67.40
2022-12-31T17:34:24.012Z,67.30
2022-12-31T17:37:03.265Z,67.58
2022-12-31T17:39:52.566Z,67.64
2022-12-31T17:42:29.511Z,67.58
2022-12-31T17:45:03.012Z,67.50
2022-12-31T17:47:40.230Z,67.71
2022-12-31T17:50:31.104Z,67.53
2022-12-31T17:53:10.775Z,67.64
2022-12-31T17:55:43.480Z,67.76
2022-12-31T17:58:24.722Z,67.63
2022-12-31T18:01:02.485Z,67.66
2022-12-31T18:03:34.668Z,67.56
2022-12-31T18:06:10.253Z,67.61
2022-12-31T18:08:46.457Z,67.50
2022-12-31T18:11:21.423Z,67.55
2022-12-31T18:13:54.071Z,67.23
2022-12-31T18:16:25.971Z,67.32
2022-12-31T18:19:00.741Z,67.29
2022-12-31T18:21:34.667Z,67.22
2022-12-31T18:24:12.519Z,67.29
2022-12-31T18:26:44.601Z,67.31
2022-12-31T18:29:19.985Z,67.28
2022-12-31T18:31:52.148Z,67.46
2022-12-31T18:34:24.272Z,67.46
2022-12-31T18:36:56.061Z,67.24
2022-12-31T18:39:27.966Z,67.31
2022-12-31T18:41:59.976Z,67.42
2022-12-31T18:44:31.844Z,67.39
2022-12-31T18:47:03.751Z,67.40
2022-12-31T18:49:35.605Z,67.25
2022-12-31T18:52:13.369Z,67.51
2022-12-31T18:54:45.493Z,67.55
2022-12-31T18:57:17.861Z,67.53
2022-12-31T18:59:49.741Z,67.65
2022-12-31T19:02:22.723Z,67.68
2022-12-31T19:04:54.727Z,67.81
2022-12-31T19:07:26.553Z,67.87
2022-12-31T19:09:58.752Z,67.97
2022-12-31T19:12:30.669Z,68.11
2022-12-31T19:15:02.473Z,68.21
2022-12-31T19:17:34.295Z,68.21
2022-12-31T19:20:13.967Z,68.52
2022-12-31T19:22:45.862Z,68.65
2022-12-31T19:25:21.590Z,68.77
2022-12-31T19:27:53.469Z,68.74
2022-12-31T19:30:34.011Z,69.04
2022-12-31T19:33:05.886Z,68.74
2022-12-31T19:35:38.439Z,68.93
2022-12-31T19:38:18.015Z,68.93
2022-12-31T19:40:50.295Z,69.15
2022-12-31T19:43:24.835Z,69.13
2022-12-31T19:45:56.713Z,69.10
2022-12-31T19:48:32.642Z,69.44
2022-12-31T19:51:09.030Z,69.11
2022-12-31T19:53:40.884Z,69.29
2022-12-31T19:56:16.090Z,69.29
2022-12-31T19:58:47.958Z,69.39
2022-12-31T20:01:23.572Z,69.31
2022-12-31T20:03:56.463Z,69.19
2022-12-31T20:06:28.682Z,69.31
2022-12-31T20:09:00.560Z,69.27
2022-12-31T20:11:32.439Z,69.31
2022-12-31T20:14:04.229Z,69.22
2022-12-31T20:16:36.410Z,69.28
2022-12-31T20:19:08.377Z,69.24
2022-12-31T20:21:42.014Z,69.50
2022-12-31T20:24:13.931Z,69.73
2022-12-31T20:26:45.752Z,69.55
2022-12-31T20:29:17.560Z,69.51
2022-12-31T20:31:49.353Z,69.74
2022-12-31T20:34:21.328Z,69.71
2022-12-31T20:36:53.317Z,69.75
2022-12-31T20:39:25.499Z,69.78
2022-12-31T20:41:57.445Z,69.91
2022-12-31T20:44:29.218Z,70.05
2022-12-31T20:47:01.262Z,69.90
2022-12-31T20:50:01.270Z,70.23
2022-12-31T20:52:25.206Z,70.18
2022-12-31T20:54:56.999Z,70.15
2022-12-31T20:57:33.256Z,70.02
2022-12-31T21:00:15.028Z,70.22
2022-12-31T21:02:55.515Z,70.37
2022-12-31T21:05:32.749Z,70.25
2022-12-31T21:08:04.934Z,70.23
2022-12-31T21:10:36.812Z,70.25
2022-12-31T21:13:08.751Z,70.34
2022-12-31T21:15:40.713Z,70.43
2022-12-31T21:18:12.624Z,70.47
2022-12-31T21:20:48.713Z,70.44
2022-12-31T21:23:21.513Z,70.30
2022-12-31T21:25:53.266Z,70.60
2022-12-31T21:28:25.923Z,70.63
2022-12-31T21:31:01.513Z,70.47
2022-12-31T21:33:33.810Z,70.50
2022-12-31T21:36:06.086Z,70.55
2022-12-31T21:38:40.134Z,70.74
2022-12-31T21:41:35.137Z,70.77
2022-12-31T21:44:07.241Z,70.82
2022-12-31T21:46:42.624Z,70.93
2022-12-31T21:49:26.681Z,70.81
2022-12-31T21:52:15.940Z,70.96
2022-12-31T21:55:05.459Z,71.08
2022-12-31T21:57:59.023Z,71.23
2022-12-31T22:00:49.906Z,71.06
2022-12-31T22:03:31.929Z,71.27
2022-12-31T22:06:10.134Z,71.48
2022-12-31T22:08:43.345Z,71.38
2022-12-31T22:11:16.796Z,71.44
2022-12-31T22:13:49.580Z,71.63
2022-12-31T22:16:22.160Z,71.67
2022-12-31T22:18:55.955Z,71.70
2022-12-31T22:21:28.441Z,71.75
2022-12-31T22:24:00.427Z,71.67
2022-12-31T22:26:32.641Z,71.53
2022-12-31T22:29:04.500Z,71.53
2022-12-31T22:31:36.694Z,71.49
2022-12-31T22:34:08.669Z,71.42
2022-12-31T22:36:40.701Z,71.41
2022-12-31T22:39:44.046Z,71.27
2022-12-31T22:42:08.819Z,71.23
2022-12-31T22:44:40.604Z,71.05
2022-12-31T22:47:12.433Z,70.99
2022-12-31T22:49:44.270Z,70.89
2022-12-31T22:52:16.042Z,70.93
2022-12-31T22:54:47.787Z,70.80
2022-12-31T22:57:20.287Z,70.60
2022-12-31T22:59:52.577Z,70.60
2022-12-31T23:02:24.432Z,70.32
2022-12-31T23:05:15.726Z,70.32
2022-12-31T23:07:48.061Z,70.42
2022-12-31T23:10:43.698Z,70.30
2022-12-31T23:13:33.480Z,70.11
2022-12-31T23:16:23.140Z,70.08
2022-12-31T23:19:12.673Z,70.03
2022-12-31T23:22:01.715Z,70.04
2022-12-31T23:24:33.794Z,70.05
2022-12-31T23:27:06.394Z,70.14
2022-12-31T23:29:46.785Z,69.99
2022-12-31T23:32:19.997Z,70.06
2022-12-31T23:34:53.453Z,70.02
2022-12-31T23:37:25.284Z,69.95
2022-12-31T23:39:57.138Z,69.93
2022-12-31T23:42:28.929Z,69.96
2022-12-31T23:45:00.739Z,70.07
2022-12-31T23:47:32.623Z,70.15
2022-12-31T23:50:04.568Z,70.12
2022-12-31T23:52:36.333Z,70.13
2022-12-31T23:55:10.677Z,70.14
2022-12-31T23:57:42.513Z,70.26
